createdAt,value
2024-02-24T00:00:46.520Z,57.60
2024-02-24T00:03:23.185Z,58.40
2024-02-24T00:06:24.964Z,58.10
2024-02-24T00:08:55.028Z,58.20
2024-02-24T00:11:43.127Z,58.00
2024-02-24T00:15:26.162Z,58.20
2024-02-24T00:35:55.869Z,58.50
2024-02-24T00:39:03.733Z,58.80
2024-02-24T00:42:18.734Z,58.50
2024-02-24T00:45:09.757Z,58.80
2024-02-24T00:51:42.934Z,58.50
2024-02-24T00:54:43.820Z,58.80
2024-02-24T00:57:29.742Z,58.40
2024-02-24T01:00:15.809Z,58.40
2024-02-24T01:03:08.921Z,58.50
2024-02-24T01:05:54.648Z,58.50
2024-02-24T01:08:30.924Z,58.40
2024-02-24T01:14:26.272Z,58.40
2024-02-24T01:16:58.865Z,58.90
2024-02-24T01:20:07.093Z,58.50
2024-02-24T01:22:49.731Z,59.20
2024-02-24T01:25:25.993Z,58.80
2024-02-24T01:28:12.508Z,58.70
2024-02-24T01:31:01.998Z,58.70
2024-02-24T01:33:32.125Z,58.80
2024-02-24T01:35:59.223Z,58.80
2024-02-24T01:38:28.885Z,58.80
2024-02-24T01:41:00.725Z,58.70
2024-02-24T01:44:01.252Z,58.90
2024-02-24T01:46:40.162Z,59.10
2024-02-24T01:49:20.079Z,58.90
2024-02-24T01:51:52.761Z,59.00
2024-02-24T01:54:35.731Z,59.10
2024-02-24T01:57:19.827Z,59.20
2024-02-24T01:59:49.360Z,59.40
2024-02-24T02:05:44.761Z,59.30
2024-02-24T02:08:12.040Z,59.20
2024-02-24T02:10:46.866Z,58.90
2024-02-24T02:13:21.981Z,59.60
2024-02-24T02:16:07.412Z,59.30
2024-02-24T02:18:44.459Z,59.40
2024-02-24T02:21:26.087Z,59.20
2024-02-24T02:24:06.630Z,59.30
2024-02-24T02:26:38.615Z,59.20
2024-02-24T02:29:18.938Z,59.10
2024-02-24T02:31:53.781Z,59.30
2024-02-24T02:34:40.041Z,59.20
2024-02-24T02:37:09.738Z,59.40
2024-02-24T02:39:49.974Z,59.20
2024-02-24T02:42:21.939Z,59.20
2024-02-24T02:45:04.202Z,59.20
2024-02-24T02:47:38.623Z,59.40
2024-02-24T02:50:07.305Z,59.30
2024-02-24T02:52:49.803Z,59.20
2024-02-24T02:55:32.745Z,59.20
2024-02-24T02:58:08.115Z,59.50
2024-02-24T03:00:43.476Z,59.50
2024-02-24T03:03:15.143Z,59.30
2024-02-24T03:05:53.110Z,59.50
2024-02-24T03:08:27.009Z,59.50
2024-02-24T03:10:57.703Z,59.50
2024-02-24T03:13:27.420Z,59.50
2024-02-24T03:16:00.967Z,59.40
2024-02-24T03:18:28.140Z,59.50
2024-02-24T03:21:08.486Z,59.50
2024-02-24T03:23:52.109Z,59.60
2024-02-24T03:26:25.746Z,59.50
2024-02-24T03:28:55.226Z,59.40
2024-02-24T03:31:29.749Z,59.50
2024-02-24T03:34:02.252Z,59.50
2024-02-24T03:36:31.724Z,59.70
2024-02-24T03:38:59.996Z,59.70
2024-02-24T03:41:34.196Z,59.80
2024-02-24T03:44:01.591Z,59.80
2024-02-24T03:46:32.968Z,59.90
2024-02-24T03:49:06.631Z,59.80
2024-02-24T03:51:33.851Z,60.10
2024-02-24T03:54:03.988Z,59.90
2024-02-24T03:56:38.604Z,60.00
2024-02-24T03:59:05.864Z,59.80
2024-02-24T04:01:35.275Z,59.90
2024-02-24T04:04:06.284Z,59.90
2024-02-24T04:06:37.480Z,60.10
2024-02-24T04:09:09.995Z,59.90
2024-02-24T04:11:39.933Z,59.80
2024-02-24T04:14:11.199Z,60.30
2024-02-24T04:16:41.334Z,60.30
2024-02-24T04:19:13.957Z,60.50
2024-02-24T04:21:54.272Z,60.10
2024-02-24T04:24:30.207Z,60.10
2024-02-24T04:27:01.524Z,60.20
2024-02-24T04:29:32.407Z,60.10
2024-02-24T04:32:07.068Z,60.00
2024-02-24T04:34:39.363Z,60.50
2024-02-24T04:37:06.624Z,60.10
2024-02-24T04:39:36.529Z,60.00
2024-02-24T04:42:21.242Z,60.20
2024-02-24T04:44:50.905Z,60.30
2024-02-24T04:47:19.580Z,60.20
2024-02-24T04:49:52.826Z,60.90
2024-02-24T04:52:25.189Z,60.50
2024-02-24T04:54:56.901Z,60.20
2024-02-24T04:57:36.074Z,60.50
2024-02-24T05:00:14.635Z,60.50
2024-02-24T05:02:41.725Z,60.80
2024-02-24T05:05:12.241Z,60.80
2024-02-24T05:07:46.692Z,61.20
2024-02-24T05:10:13.857Z,61.30
2024-02-24T05:12:49.483Z,61.00
2024-02-24T05:15:27.175Z,60.80
2024-02-24T05:17:57.286Z,60.90
2024-02-24T05:20:24.604Z,60.90
2024-02-24T05:22:56.526Z,61.00
2024-02-24T05:25:28.030Z,60.70
2024-02-24T05:28:01.500Z,60.80
2024-02-24T05:30:30.435Z,60.70
2024-02-24T05:33:10.727Z,60.70
2024-02-24T05:35:42.524Z,60.90
2024-02-24T05:38:15.140Z,60.70
2024-02-24T05:40:42.150Z,60.90
2024-02-24T05:43:09.190Z,60.80
2024-02-24T05:45:36.633Z,60.70
2024-02-24T05:48:04.771Z,60.80
2024-02-24T05:50:31.841Z,61.00
2024-02-24T05:52:58.784Z,61.40
2024-02-24T05:55:25.981Z,60.90
2024-02-24T05:57:53.048Z,61.00
2024-02-24T06:00:22.440Z,61.30
2024-02-24T06:02:49.714Z,61.30
2024-02-24T06:05:19.361Z,61.10
2024-02-24T06:07:46.562Z,60.60
2024-02-24T06:10:13.779Z,60.70
2024-02-24T06:12:45.997Z,60.90
2024-02-24T06:15:13.026Z,60.90
2024-02-24T06:17:40.395Z,60.70
2024-02-24T06:20:14.000Z,60.90
2024-02-24T06:22:41.000Z,61.40
2024-02-24T06:25:08.436Z,61.20
2024-02-24T06:27:39.210Z,60.80
2024-02-24T06:30:10.389Z,60.50
2024-02-24T06:32:37.635Z,60.70
2024-02-24T06:35:10.656Z,60.60
2024-02-24T06:37:42.762Z,60.70
2024-02-24T06:40:14.825Z,60.40
2024-02-24T06:42:52.509Z,60.50
2024-02-24T06:45:28.768Z,60.50
2024-02-24T06:48:06.065Z,60.40
2024-02-24T06:50:42.400Z,60.50
2024-02-24T06:53:14.600Z,60.70
2024-02-24T06:55:47.764Z,60.40
2024-02-24T06:58:17.501Z,60.50
2024-02-24T07:00:44.784Z,60.50
2024-02-24T07:03:12.546Z,60.50
2024-02-24T07:05:39.876Z,61.10
2024-02-24T07:08:09.793Z,61.20
2024-02-24T07:10:41.771Z,60.60
2024-02-24T07:13:10.510Z,61.10
2024-02-24T07:15:44.044Z,60.70
2024-02-24T07:18:20.997Z,60.80
2024-02-24T07:20:48.467Z,61.00
2024-02-24T07:23:15.363Z,60.90
2024-02-24T07:25:42.926Z,60.80
2024-02-24T07:28:15.232Z,60.90
2024-02-24T07:30:42.120Z,61.00
2024-02-24T07:33:19.447Z,60.80
2024-02-24T07:35:50.534Z,60.30
2024-02-24T07:38:17.647Z,60.90
2024-02-24T07:40:44.544Z,61.30
2024-02-24T07:43:18.933Z,61.00
2024-02-24T07:45:55.142Z,61.10
2024-02-24T07:48:24.684Z,61.00
2024-02-24T07:50:51.592Z,60.70
2024-02-24T07:53:18.420Z,61.00
2024-02-24T07:55:45.237Z,61.10
2024-02-24T07:58:12.846Z,61.00
2024-02-24T08:00:39.647Z,61.10
2024-02-24T08:03:06.505Z,61.40
2024-02-24T08:05:33.325Z,60.90
2024-02-24T08:08:00.170Z,60.90
2024-02-24T08:10:26.906Z,61.00
2024-02-24T08:12:53.732Z,60.80
2024-02-24T08:15:20.463Z,60.90
2024-02-24T08:17:47.264Z,60.90
2024-02-24T08:20:14.587Z,60.80
2024-02-24T08:22:41.802Z,60.80
2024-02-24T08:25:09.018Z,60.80
2024-02-24T08:27:35.847Z,60.80
2024-02-24T08:30:03.292Z,60.80
2024-02-24T08:32:31.137Z,60.70
2024-02-24T08:34:58.017Z,60.60
2024-02-24T08:37:24.818Z,60.60
2024-02-24T08:39:51.621Z,60.50
2024-02-24T08:42:18.488Z,60.50
2024-02-24T08:44:45.247Z,60.30
2024-02-24T08:47:12.082Z,60.20
2024-02-24T08:49:38.850Z,60.30
2024-02-24T08:52:06.365Z,60.10
2024-02-24T08:54:36.132Z,60.10
2024-02-24T08:57:03.220Z,60.10
2024-02-24T08:59:30.017Z,60.20
2024-02-24T09:01:56.834Z,60.20
2024-02-24T09:04:23.713Z,60.20
2024-02-24T09:06:50.744Z,59.90
2024-02-24T09:09:17.788Z,60.20
2024-02-24T09:11:47.492Z,60.00
2024-02-24T09:14:14.792Z,59.90
2024-02-24T09:16:41.650Z,59.70
2024-02-24T09:19:08.533Z,59.30
2024-02-24T09:21:35.340Z,59.30
2024-02-24T09:24:02.204Z,59.30
2024-02-24T09:26:29.666Z,59.30
2024-02-24T09:28:56.420Z,59.30
2024-02-24T09:31:28.986Z,59.00
2024-02-24T09:33:59.019Z,59.00
2024-02-24T09:36:26.022Z,58.90
2024-02-24T09:38:52.797Z,58.80
2024-02-24T09:41:19.715Z,58.70
2024-02-24T09:43:47.745Z,59.00
2024-02-24T09:46:17.820Z,57.90
2024-02-24T09:48:50.551Z,57.70
2024-02-24T09:51:17.572Z,58.00
2024-02-24T09:53:44.436Z,57.60
2024-02-24T09:56:12.638Z,58.00
2024-02-24T09:58:42.158Z,58.00
2024-02-24T10:01:10.361Z,57.80
2024-02-24T10:03:48.895Z,57.30
2024-02-24T10:06:16.072Z,57.40
2024-02-24T10:08:42.968Z,57.70
2024-02-24T10:11:11.777Z,57.70
2024-02-24T10:13:39.162Z,57.90
2024-02-24T10:16:09.313Z,57.80
2024-02-24T10:18:41.724Z,57.60
2024-02-24T10:21:08.701Z,57.60
2024-02-24T10:23:35.567Z,57.80
2024-02-24T10:26:05.276Z,57.60
2024-02-24T10:28:32.772Z,57.70
2024-02-24T10:31:00.159Z,57.50
2024-02-24T10:33:34.303Z,57.70
2024-02-24T10:36:05.400Z,57.10
2024-02-24T10:38:41.819Z,57.80
2024-02-24T10:41:12.291Z,57.20
2024-02-24T10:43:40.217Z,56.90
2024-02-24T10:46:07.037Z,57.20
2024-02-24T10:48:34.019Z,57.50
2024-02-24T10:51:01.622Z,57.30
2024-02-24T10:53:32.264Z,57.20
2024-02-24T10:56:02.785Z,57.30
2024-02-24T10:58:29.970Z,56.70
2024-02-24T11:00:57.186Z,57.00
2024-02-24T11:03:24.598Z,56.90
2024-02-24T11:05:52.844Z,57.10
2024-02-24T11:08:42.177Z,57.30
2024-02-24T11:11:12.123Z,56.90
2024-02-24T11:13:59.618Z,57.40
2024-02-24T11:16:36.962Z,57.10
2024-02-24T11:19:06.393Z,57.20
2024-02-24T11:22:03.646Z,56.70
2024-02-24T11:24:32.510Z,56.50
2024-02-24T11:26:59.522Z,56.80
2024-02-24T11:29:30.813Z,56.70
2024-02-24T11:32:13.383Z,56.30
2024-02-24T11:34:45.770Z,56.40
2024-02-24T11:37:18.567Z,56.80
2024-02-24T11:39:48.106Z,57.00
2024-02-24T11:42:15.739Z,57.20
2024-02-24T11:44:47.938Z,57.10
2024-02-24T11:47:19.694Z,57.30
2024-02-24T11:49:49.497Z,57.20
2024-02-24T11:52:17.541Z,56.90
2024-02-24T11:54:46.320Z,56.50
2024-02-24T11:57:14.474Z,56.00
2024-02-24T11:59:44.720Z,55.40
2024-02-24T12:02:15.835Z,56.10
2024-02-24T12:04:42.844Z,55.90
2024-02-24T12:07:10.386Z,56.40
2024-02-24T12:09:37.394Z,55.70
2024-02-24T12:12:06.146Z,54.90
2024-02-24T12:14:34.011Z,55.50
2024-02-24T12:17:02.996Z,55.60
2024-02-24T12:19:36.562Z,55.90
2024-02-24T12:22:09.977Z,55.90
2024-02-24T12:24:38.996Z,56.00
2024-02-24T12:27:09.665Z,56.30
2024-02-24T12:29:36.634Z,55.80
2024-02-24T12:32:05.498Z,55.70
2024-02-24T12:34:33.622Z,55.50
2024-02-24T12:37:04.422Z,55.80
2024-02-24T12:39:32.282Z,55.70
2024-02-24T12:41:59.448Z,55.80
2024-02-24T12:44:32.289Z,55.80
2024-02-24T12:47:08.773Z,55.60
2024-02-24T12:49:41.966Z,55.70
2024-02-24T12:52:09.332Z,55.60
2024-02-24T12:54:36.443Z,55.60
2024-02-24T12:57:27.190Z,55.50
2024-02-24T12:59:59.601Z,55.40
2024-02-24T13:02:32.244Z,55.20
2024-02-24T13:05:02.085Z,54.90
2024-02-24T13:07:42.361Z,54.90
2024-02-24T13:10:16.920Z,54.30
2024-02-24T13:12:45.558Z,54.40
2024-02-24T13:15:15.243Z,54.60
2024-02-24T13:17:47.365Z,54.80
2024-02-24T13:20:14.557Z,54.70
2024-02-24T13:22:48.752Z,54.20
2024-02-24T13:25:22.640Z,54.70
2024-02-24T13:27:49.825Z,54.60
2024-02-24T13:30:16.996Z,54.50
2024-02-24T13:32:44.309Z,54.60
2024-02-24T13:35:11.496Z,54.50
2024-02-24T13:37:40.976Z,54.10
2024-02-24T13:40:13.925Z,54.40
2024-02-24T13:42:44.545Z,53.80
2024-02-24T13:45:12.032Z,54.50
2024-02-24T13:47:38.999Z,54.60
2024-02-24T13:50:10.612Z,54.60
2024-02-24T13:52:54.701Z,54.80
2024-02-24T13:55:26.071Z,54.80
2024-02-24T13:57:53.930Z,54.20
2024-02-24T14:00:24.571Z,53.90
2024-02-24T14:02:56.407Z,54.20
2024-02-24T14:05:34.499Z,54.20
2024-02-24T14:08:05.035Z,54.40
2024-02-24T14:10:39.640Z,54.70
2024-02-24T14:13:09.577Z,54.90
2024-02-24T14:15:52.831Z,53.80
2024-02-24T14:18:20.078Z,54.50
2024-02-24T14:21:45.102Z,54.80
2024-02-24T14:24:17.756Z,54.90
2024-02-24T14:26:49.791Z,53.90
2024-02-24T14:29:22.789Z,54.20
2024-02-24T14:31:56.084Z,53.70
2024-02-24T14:34:31.901Z,53.70
2024-02-24T14:37:13.575Z,53.00
2024-02-24T14:39:43.673Z,53.60
2024-02-24T14:42:15.968Z,53.30
2024-02-24T14:44:53.210Z,52.80
2024-02-24T14:47:27.727Z,52.10
2024-02-24T14:49:55.059Z,52.50
2024-02-24T14:52:32.077Z,52.20
2024-02-24T14:54:59.300Z,52.60
2024-02-24T14:57:35.194Z,52.20
2024-02-24T15:00:13.982Z,52.40
2024-02-24T15:03:04.227Z,51.70
2024-02-24T15:05:37.192Z,50.60
2024-02-24T15:08:09.866Z,51.10
2024-02-24T15:10:37.186Z,51.50
2024-02-24T15:13:13.799Z,51.40
2024-02-24T15:15:50.007Z,51.60
2024-02-24T15:18:18.320Z,50.90
2024-02-24T15:21:16.133Z,51.10
2024-02-24T15:23:46.275Z,50.30
2024-02-24T15:26:37.273Z,50.90
2024-02-24T15:29:07.665Z,51.20
2024-02-24T15:31:42.357Z,50.40
2024-02-24T15:34:09.603Z,49.50
2024-02-24T15:36:36.944Z,50.00
2024-02-24T15:39:04.192Z,50.20
2024-02-24T15:41:33.606Z,49.80
2024-02-24T15:44:02.049Z,50.40
2024-02-24T15:46:29.033Z,49.70
2024-02-24T15:48:56.165Z,49.40
2024-02-24T15:51:23.189Z,50.40
2024-02-24T15:53:50.206Z,51.00
2024-02-24T15:56:17.324Z,51.00
2024-02-24T15:58:45.822Z,50.70
2024-02-24T16:01:13.391Z,49.90
2024-02-24T16:03:40.256Z,50.70
2024-02-24T16:06:07.542Z,50.90
2024-02-24T16:08:34.824Z,50.60
2024-02-24T16:11:01.691Z,50.20
2024-02-24T16:13:28.605Z,50.70
2024-02-24T16:15:55.997Z,50.90
2024-02-24T16:18:23.449Z,51.00
2024-02-24T16:20:50.486Z,50.10
2024-02-24T16:23:19.504Z,50.10
2024-02-24T16:25:46.538Z,50.40
2024-02-24T16:28:14.595Z,50.60
2024-02-24T16:30:41.516Z,50.70
2024-02-24T16:33:08.613Z,50.70
2024-02-24T16:35:36.317Z,50.70
2024-02-24T16:38:03.295Z,50.60
2024-02-24T16:40:32.932Z,50.50
2024-02-24T16:42:59.992Z,50.40
2024-02-24T16:45:26.862Z,50.70
2024-02-24T16:47:53.807Z,50.70
2024-02-24T16:50:21.129Z,50.70
2024-02-24T16:52:48.704Z,51.40
2024-02-24T16:55:15.486Z,51.20
2024-02-24T16:57:42.325Z,50.90
2024-02-24T17:11:07.690Z,50.80
2024-02-24T17:13:34.480Z,51.20
2024-02-24T17:16:05.762Z,51.60
2024-02-24T17:18:36.715Z,51.50
2024-02-24T17:23:51.749Z,51.40
2024-02-24T17:26:18.717Z,51.40
2024-02-24T17:28:48.803Z,51.50
2024-02-24T17:31:16.791Z,51.80
2024-02-24T17:33:48.270Z,51.60
2024-02-24T17:36:25.485Z,51.60
2024-02-24T17:38:52.677Z,51.50
2024-02-24T17:41:20.192Z,51.70
2024-02-24T17:43:46.955Z,51.60
2024-02-24T17:46:16.294Z,51.50
2024-02-24T17:48:48.375Z,51.70
2024-02-24T17:51:16.128Z,51.60
2024-02-24T17:53:42.967Z,51.80
2024-02-24T17:56:09.978Z,51.80
2024-02-24T17:58:44.524Z,51.80
2024-02-24T18:01:14.696Z,51.80
2024-02-24T18:03:41.775Z,51.80
2024-02-24T18:06:10.705Z,51.70
2024-02-24T18:08:37.663Z,51.80
2024-02-24T18:11:04.962Z,51.70
2024-02-24T18:13:32.009Z,51.90
2024-02-24T18:15:58.916Z,51.80
2024-02-24T18:18:25.881Z,52.10
2024-02-24T18:20:55.609Z,52.20
2024-02-24T18:23:22.480Z,52.40
2024-02-24T18:25:49.431Z,52.10
2024-02-24T18:28:16.439Z,52.60
2024-02-24T18:30:48.433Z,52.20
2024-02-24T18:33:15.454Z,52.20
2024-02-24T18:35:42.473Z,52.60
2024-02-24T18:38:10.056Z,52.30
2024-02-24T18:40:36.745Z,52.30
2024-02-24T18:43:03.593Z,52.40
2024-02-24T18:45:30.420Z,52.20
2024-02-24T18:47:57.261Z,52.40
2024-02-24T18:50:24.221Z,52.30
2024-02-24T18:52:51.001Z,52.40
2024-02-24T18:55:18.134Z,52.40
2024-02-24T18:57:44.925Z,52.50
2024-02-24T19:00:12.237Z,52.70
2024-02-24T19:03:10.540Z,52.60
2024-02-24T19:05:37.674Z,52.70
2024-02-24T19:08:05.301Z,52.70
2024-02-24T19:10:33.391Z,52.80
2024-02-24T19:13:00.336Z,52.50
2024-02-24T19:15:27.433Z,52.80
2024-02-24T19:17:54.605Z,52.80
2024-02-24T19:20:21.604Z,52.90
2024-02-24T19:22:48.475Z,52.90
2024-02-24T19:25:16.180Z,53.20
2024-02-24T19:27:43.194Z,53.20
2024-02-24T19:30:10.744Z,53.10
2024-02-24T19:32:37.774Z,53.10
2024-02-24T19:35:08.700Z,52.90
2024-02-24T19:37:35.757Z,53.70
2024-02-24T19:41:17.628Z,53.60
2024-02-24T19:43:44.552Z,53.30
2024-02-24T19:46:11.391Z,53.60
2024-02-24T19:48:47.166Z,53.40
2024-02-24T19:51:14.441Z,53.40
2024-02-24T19:53:44.118Z,53.40
2024-02-24T19:56:11.116Z,53.50
2024-02-24T19:58:45.044Z,53.30
2024-02-24T20:01:18.322Z,53.90
2024-02-24T20:03:45.219Z,53.60
2024-02-24T20:06:13.197Z,53.70
2024-02-24T20:08:40.267Z,53.60
2024-02-24T20:11:07.225Z,53.60
2024-02-24T20:13:35.374Z,53.40
2024-02-24T20:16:04.722Z,53.80
2024-02-24T20:18:36.859Z,54.10
2024-02-24T20:21:06.880Z,53.70
2024-02-24T20:23:37.049Z,53.80
2024-02-24T20:26:04.068Z,53.50
2024-02-24T20:28:30.946Z,53.90
2024-02-24T20:30:57.980Z,53.80
2024-02-24T20:33:27.515Z,54.00
2024-02-24T20:35:54.742Z,54.50
2024-02-24T20:38:21.774Z,54.00
2024-02-24T20:40:48.929Z,54.00
2024-02-24T20:43:15.844Z,54.10
2024-02-24T20:45:42.906Z,54.00
2024-02-24T20:48:11.131Z,54.10
2024-02-24T20:50:38.195Z,54.10
2024-02-24T20:53:05.436Z,53.90
2024-02-24T20:55:35.340Z,54.20
2024-02-24T20:58:02.408Z,54.60
2024-02-24T21:00:29.342Z,54.20
2024-02-24T21:02:56.474Z,54.20
2024-02-24T21:05:23.518Z,54.30
2024-02-24T21:07:50.407Z,54.30
2024-02-24T21:10:17.436Z,54.30
2024-02-24T21:12:44.428Z,54.50
2024-02-24T21:15:11.554Z,54.40
2024-02-24T21:17:38.592Z,54.60
2024-02-24T21:20:06.413Z,54.60
2024-02-24T21:22:33.704Z,54.50
2024-02-24T21:25:00.886Z,54.50
2024-02-24T21:27:28.022Z,54.60
2024-02-24T21:29:54.948Z,55.00
2024-02-24T21:32:22.149Z,55.00
2024-02-24T21:34:49.492Z,54.60
2024-02-24T21:37:21.280Z,54.60
2024-02-24T21:39:49.352Z,54.60
2024-02-24T21:42:16.710Z,54.60
2024-02-24T21:44:44.100Z,54.60
2024-02-24T21:47:11.542Z,54.70
2024-02-24T21:49:39.203Z,54.80
2024-02-24T21:52:08.471Z,54.90
2024-02-24T21:54:35.858Z,54.90
2024-02-24T21:57:03.497Z,54.90
2024-02-24T21:59:30.683Z,55.40
2024-02-24T22:01:58.507Z,55.20
2024-02-24T22:04:25.607Z,55.20
2024-02-24T22:06:55.633Z,55.40
2024-02-24T22:09:22.636Z,55.20
2024-02-24T22:11:49.568Z,55.10
2024-02-24T22:14:22.286Z,55.10
2024-02-24T22:16:49.826Z,55.10
2024-02-24T22:19:16.947Z,55.00
2024-02-24T22:21:43.971Z,55.00
2024-02-24T22:24:10.905Z,55.10
2024-02-24T22:26:39.972Z,55.00
2024-02-24T22:29:06.973Z,54.90
2024-02-24T22:31:33.767Z,55.00
2024-02-24T22:34:00.691Z,54.90
2024-02-24T22:36:27.768Z,55.00
2024-02-24T22:38:54.754Z,55.20
2024-02-24T22:41:24.658Z,55.10
2024-02-24T22:43:52.261Z,55.00
2024-02-24T22:46:19.942Z,55.00
2024-02-24T22:48:47.235Z,55.10
2024-02-24T22:51:14.375Z,55.00
2024-02-24T22:53:42.230Z,55.20
2024-02-24T22:56:09.169Z,55.20
2024-02-24T22:58:35.954Z,55.60
2024-02-24T23:01:03.721Z,55.50
2024-02-24T23:03:31.161Z,55.50
2024-02-24T23:05:58.107Z,55.40
2024-02-24T23:08:25.029Z,55.40
2024-02-24T23:10:52.160Z,55.40
2024-02-24T23:13:19.498Z,55.70
2024-02-24T23:15:46.316Z,55.70
2024-02-24T23:18:13.458Z,55.50
2024-02-24T23:20:40.422Z,55.50
2024-02-24T23:23:07.508Z,55.50
2024-02-24T23:25:34.437Z,55.60
2024-02-24T23:28:02.279Z,55.60
2024-02-24T23:30:29.123Z,55.60
2024-02-24T23:32:56.073Z,55.60
2024-02-24T23:35:23.124Z,55.60
2024-02-24T23:37:50.154Z,55.60
2024-02-24T23:40:17.286Z,55.60
2024-02-24T23:42:44.128Z,55.50
2024-02-24T23:45:11.320Z,55.70
2024-02-24T23:47:38.278Z,55.70
2024-02-24T23:50:05.845Z,55.70
2024-02-24T23:52:32.674Z,55.80
2024-02-24T23:55:01.101Z,55.80
2024-02-24T23:57:33.510Z,55.70
